EZY3488 LIRF-EDDM
Flight info
| Callsign | EZY3488 |
|---|---|
| Flight time | 1h 16m |
| Altitude | 38000 |
| Route | SOVAN DCT AMTEL DCT NAXAV DCT SOTOV/N0366F240 T101 BETOS BETOS1B |
| Aircraft | A319/M-SDE3FGHIRWY/LB1 |
Departure
| Time | 2026-05-04 08:54 |
|---|---|
| Airport | Rome–Fiumicino Leonardo da Vinci International Airport (LIRF) |
Arrival
| Time | 2026-05-04 10:11 |
|---|---|
| Airport | Munich Airport (EDDM) |
| Time | Latitude | Longitude | Altitude | Speed | Heading |
|---|---|---|---|---|---|
| 2026-05-04 08:31 | 41.79797 | 12.25528 | 19 ft | 0 kts | 115° |
| 2026-05-04 08:43 | 41.79798 | 12.25523 | 19 ft | 3 kts | 114° |
| 2026-05-04 08:43 | 41.79808 | 12.25496 | 19 ft | 3 kts | 115° |
| 2026-05-04 08:43 | 41.79817 | 12.25469 | 19 ft | 3 kts | 116° |
| 2026-05-04 08:44 | 41.79820 | 12.25441 | 18 ft | 3 kts | 77° |
| 2026-05-04 08:44 | 41.79810 | 12.25420 | 18 ft | 0 kts | 38° |
| 2026-05-04 08:47 | 41.79810 | 12.25421 | 18 ft | 0 kts | 38° |
| 2026-05-04 08:47 | 41.79821 | 12.25433 | 18 ft | 5 kts | 39° |
| 2026-05-04 08:47 | 41.79855 | 12.25479 | 18 ft | 10 kts | 39° |
| 2026-05-04 08:47 | 41.79929 | 12.25530 | 17 ft | 17 kts | 22° |
| 2026-05-04 08:48 | 41.80020 | 12.25534 | 16 ft | 16 kts | 306° |
| 2026-05-04 08:48 | 41.80067 | 12.25414 | 14 ft | 17 kts | 295° |
| 2026-05-04 08:48 | 41.80113 | 12.25280 | 12 ft | 19 kts | 294° |
| 2026-05-04 08:48 | 41.80162 | 12.25136 | 10 ft | 17 kts | 295° |
| 2026-05-04 08:49 | 41.80228 | 12.25141 | 10 ft | 14 kts | 68° |
| 2026-05-04 08:50 | 41.80436 | 12.25917 | 14 ft | 20 kts | 68° |
| 2026-05-04 08:50 | 41.80474 | 12.26071 | 16 ft | 19 kts | 83° |
| 2026-05-04 08:51 | 41.80515 | 12.26218 | 15 ft | 20 kts | 64° |
| 2026-05-04 08:51 | 41.80567 | 12.26376 | 13 ft | 22 kts | 71° |
| 2026-05-04 08:51 | 41.80612 | 12.26545 | 12 ft | 23 kts | 62° |
| 2026-05-04 08:51 | 41.80662 | 12.26727 | 10 ft | 24 kts | 70° |
| 2026-05-04 08:52 | 41.80712 | 12.26909 | 10 ft | 23 kts | 71° |
| 2026-05-04 08:52 | 41.80792 | 12.27033 | 10 ft | 21 kts | 359° |
| 2026-05-04 08:52 | 41.80897 | 12.26997 | 11 ft | 16 kts | 339° |
| 2026-05-04 08:52 | 41.80950 | 12.26915 | 10 ft | 11 kts | 268° |
| 2026-05-04 08:53 | 41.80944 | 12.26885 | 10 ft | 1 kts | 250° |
| 2026-05-04 08:54 | 41.79120 | 12.19494 | 2918 ft | 192 kts | 269° |
| 2026-05-04 08:55 | 41.79620 | 12.17782 | 3478 ft | 213 kts | 310° |
| 2026-05-04 08:55 | 41.80942 | 12.16778 | 4065 ft | 231 kts | 344° |
| 2026-05-04 08:55 | 41.82494 | 12.16262 | 4614 ft | 252 kts | 346° |
| 2026-05-04 08:55 | 41.84048 | 12.15767 | 5238 ft | 267 kts | 346° |
| 2026-05-04 08:57 | 41.96204 | 12.11639 | 10906 ft | 308 kts | 346° |
| 2026-05-04 09:01 | 42.24413 | 12.02551 | 20868 ft | 355 kts | 348° |
| 2026-05-04 09:01 | 42.26574 | 12.02074 | 21458 ft | 358 kts | 348° |
| 2026-05-04 09:01 | 42.28711 | 12.01599 | 22018 ft | 362 kts | 348° |
| 2026-05-04 09:01 | 42.30903 | 12.01108 | 22612 ft | 364 kts | 348° |
| 2026-05-04 09:02 | 42.33114 | 12.00611 | 23197 ft | 366 kts | 348° |
| 2026-05-04 09:02 | 42.35313 | 12.00114 | 23761 ft | 369 kts | 348° |
| 2026-05-04 09:02 | 42.37524 | 11.99614 | 24302 ft | 372 kts | 348° |
| 2026-05-04 09:02 | 42.39767 | 11.99108 | 24824 ft | 376 kts | 348° |
| 2026-05-04 09:03 | 42.42043 | 11.98595 | 25353 ft | 379 kts | 348° |
| 2026-05-04 09:03 | 42.44336 | 11.98078 | 25883 ft | 382 kts | 348° |
| 2026-05-04 09:03 | 42.46637 | 11.97556 | 26387 ft | 385 kts | 348° |
| 2026-05-04 09:03 | 42.48966 | 11.97029 | 26876 ft | 388 kts | 348° |
| 2026-05-04 09:04 | 42.51342 | 11.96493 | 27364 ft | 391 kts | 348° |
| 2026-05-04 09:04 | 42.53711 | 11.95956 | 27835 ft | 394 kts | 348° |
| 2026-05-04 09:04 | 42.56089 | 11.95418 | 28296 ft | 397 kts | 348° |
| 2026-05-04 09:04 | 42.58489 | 11.94873 | 28748 ft | 400 kts | 348° |
| 2026-05-04 09:05 | 42.60902 | 11.94328 | 29203 ft | 402 kts | 348° |
| 2026-05-04 09:05 | 42.63329 | 11.93777 | 29652 ft | 404 kts | 348° |
| 2026-05-04 09:05 | 42.65733 | 11.93230 | 30073 ft | 407 kts | 348° |
| 2026-05-04 09:05 | 42.68199 | 11.92667 | 30466 ft | 409 kts | 348° |
| 2026-05-04 09:06 | 42.70683 | 11.92102 | 30854 ft | 412 kts | 348° |
| 2026-05-04 09:07 | 42.87785 | 11.85934 | 33314 ft | 422 kts | 333° |
| 2026-05-04 09:08 | 42.90075 | 11.84414 | 33769 ft | 420 kts | 330° |
| 2026-05-04 09:08 | 42.92310 | 11.82803 | 34212 ft | 418 kts | 329° |
| 2026-05-04 09:08 | 42.94560 | 11.81142 | 34634 ft | 417 kts | 329° |
| 2026-05-04 09:08 | 42.96771 | 11.79506 | 34979 ft | 417 kts | 329° |
| 2026-05-04 09:09 | 42.99013 | 11.77845 | 35317 ft | 416 kts | 329° |
| 2026-05-04 09:09 | 43.01207 | 11.76227 | 35644 ft | 415 kts | 329° |
| 2026-05-04 09:09 | 43.03418 | 11.74603 | 35972 ft | 413 kts | 329° |
| 2026-05-04 09:09 | 43.05618 | 11.72987 | 36301 ft | 412 kts | 329° |
| 2026-05-04 09:10 | 43.07801 | 11.71381 | 36591 ft | 411 kts | 329° |
| 2026-05-04 09:10 | 43.10025 | 11.69745 | 36905 ft | 412 kts | 329° |
| 2026-05-04 09:10 | 43.12225 | 11.68126 | 37191 ft | 413 kts | 329° |
| 2026-05-04 09:10 | 43.14406 | 11.66518 | 37440 ft | 414 kts | 329° |
| 2026-05-04 09:11 | 43.16632 | 11.64994 | 37689 ft | 416 kts | 332° |
| 2026-05-04 09:11 | 43.18946 | 11.63642 | 37946 ft | 418 kts | 336° |
| 2026-05-04 09:11 | 43.21342 | 11.62483 | 38151 ft | 421 kts | 340° |
| 2026-05-04 09:12 | 43.26239 | 11.60822 | 38132 ft | 425 kts | 347° |
| 2026-05-04 09:14 | 43.46460 | 11.58816 | 38145 ft | 428 kts | 354° |
| 2026-05-04 09:14 | 43.51513 | 11.58398 | 38136 ft | 428 kts | 354° |
| 2026-05-04 09:15 | 43.56569 | 11.57975 | 38141 ft | 428 kts | 354° |
| 2026-05-04 09:15 | 43.61683 | 11.57543 | 38141 ft | 429 kts | 354° |
| 2026-05-04 09:17 | 43.84593 | 11.55600 | 38142 ft | 429 kts | 354° |
| 2026-05-04 09:18 | 43.89729 | 11.55162 | 38134 ft | 429 kts | 354° |
| 2026-05-04 09:18 | 43.94798 | 11.54729 | 38132 ft | 429 kts | 354° |
| 2026-05-04 09:19 | 43.99884 | 11.54295 | 38142 ft | 430 kts | 354° |
| 2026-05-04 09:19 | 44.05022 | 11.53855 | 38138 ft | 429 kts | 354° |
| 2026-05-04 09:20 | 44.10180 | 11.53412 | 38136 ft | 429 kts | 354° |
| 2026-05-04 09:20 | 44.15389 | 11.52965 | 38128 ft | 430 kts | 354° |
| 2026-05-04 09:21 | 44.20610 | 11.52516 | 38126 ft | 430 kts | 354° |
| 2026-05-04 09:21 | 44.25788 | 11.52068 | 38121 ft | 430 kts | 354° |
| 2026-05-04 09:22 | 44.31043 | 11.51614 | 38126 ft | 430 kts | 354° |
| 2026-05-04 09:22 | 44.36247 | 11.51163 | 38112 ft | 429 kts | 354° |
| 2026-05-04 09:23 | 44.41449 | 11.50712 | 38107 ft | 429 kts | 354° |
| 2026-05-04 09:23 | 44.46689 | 11.50257 | 38113 ft | 430 kts | 354° |
| 2026-05-04 09:25 | 44.67567 | 11.48432 | 38097 ft | 430 kts | 354° |
| 2026-05-04 09:26 | 44.72779 | 11.47973 | 38099 ft | 430 kts | 354° |
| 2026-05-04 09:26 | 44.78000 | 11.47513 | 38094 ft | 430 kts | 354° |
| 2026-05-04 09:27 | 44.83175 | 11.47056 | 38093 ft | 430 kts | 354° |
| 2026-05-04 09:27 | 44.88392 | 11.46596 | 38087 ft | 430 kts | 354° |
| 2026-05-04 09:28 | 44.93555 | 11.46139 | 38084 ft | 430 kts | 354° |
| 2026-05-04 09:28 | 44.98755 | 11.45679 | 38079 ft | 430 kts | 354° |
| 2026-05-04 09:29 | 45.03962 | 11.45218 | 38078 ft | 430 kts | 354° |
| 2026-05-04 09:29 | 45.09161 | 11.44755 | 38076 ft | 430 kts | 354° |
| 2026-05-04 09:30 | 45.14354 | 11.44293 | 38077 ft | 430 kts | 354° |
| 2026-05-04 09:30 | 45.19521 | 11.43832 | 38077 ft | 430 kts | 354° |
| 2026-05-04 09:31 | 45.24696 | 11.43370 | 38077 ft | 430 kts | 354° |
| 2026-05-04 09:31 | 45.29877 | 11.42907 | 38080 ft | 430 kts | 354° |
| 2026-05-04 09:32 | 45.35002 | 11.42447 | 38081 ft | 430 kts | 354° |
| 2026-05-04 09:34 | 45.55479 | 11.40604 | 38073 ft | 430 kts | 354° |
| 2026-05-04 09:34 | 45.60595 | 11.40140 | 38081 ft | 430 kts | 355° |
| 2026-05-04 09:35 | 45.65756 | 11.39673 | 38083 ft | 430 kts | 354° |
| 2026-05-04 09:35 | 45.70878 | 11.39208 | 38089 ft | 430 kts | 355° |
| 2026-05-04 09:37 | 45.91402 | 11.37336 | 38112 ft | 430 kts | 355° |
| 2026-05-04 09:38 | 45.96519 | 11.36867 | 38102 ft | 430 kts | 355° |
| 2026-05-04 09:38 | 46.01673 | 11.36394 | 38110 ft | 430 kts | 355° |
| 2026-05-04 09:39 | 46.06817 | 11.35922 | 38110 ft | 430 kts | 355° |
| 2026-05-04 09:39 | 46.11963 | 11.35448 | 38118 ft | 430 kts | 355° |
| 2026-05-04 09:40 | 46.17073 | 11.34976 | 38121 ft | 430 kts | 354° |
| 2026-05-04 09:40 | 46.22158 | 11.34505 | 38123 ft | 430 kts | 354° |
| 2026-05-04 09:42 | 46.42596 | 11.32608 | 38100 ft | 430 kts | 354° |
| 2026-05-04 09:43 | 46.47660 | 11.31963 | 37785 ft | 423 kts | 350° |
| 2026-05-04 09:43 | 46.50122 | 11.31444 | 37184 ft | 422 kts | 348° |
| 2026-05-04 09:43 | 46.52625 | 11.30865 | 36621 ft | 422 kts | 348° |
| 2026-05-04 09:44 | 46.55096 | 11.30280 | 36178 ft | 421 kts | 348° |
| 2026-05-04 09:44 | 46.57606 | 11.29684 | 35697 ft | 421 kts | 348° |
| 2026-05-04 09:44 | 46.60067 | 11.29105 | 35191 ft | 422 kts | 348° |
| 2026-05-04 09:46 | 46.77541 | 11.25030 | 31325 ft | 418 kts | 348° |
| 2026-05-04 09:46 | 46.79966 | 11.24465 | 30893 ft | 414 kts | 348° |
| 2026-05-04 09:46 | 46.82434 | 11.23888 | 30422 ft | 410 kts | 348° |
| 2026-05-04 09:47 | 46.84858 | 11.23321 | 29969 ft | 407 kts | 348° |
| 2026-05-04 09:47 | 46.87270 | 11.22756 | 29512 ft | 404 kts | 348° |
| 2026-05-04 09:49 | 47.03887 | 11.21678 | 26242 ft | 389 kts | 0° |
| 2026-05-04 09:49 | 47.06240 | 11.21851 | 25792 ft | 386 kts | 0° |
| 2026-05-04 09:49 | 47.08575 | 11.22017 | 25338 ft | 384 kts | 0° |
| 2026-05-04 09:51 | 47.22044 | 11.22939 | 22732 ft | 370 kts | 0° |
| 2026-05-04 09:51 | 47.24256 | 11.23089 | 22312 ft | 368 kts | 0° |
| 2026-05-04 09:51 | 47.26432 | 11.23236 | 21891 ft | 366 kts | 0° |
| 2026-05-04 09:51 | 47.28626 | 11.23385 | 21466 ft | 365 kts | 0° |
| 2026-05-04 09:52 | 47.30838 | 11.23534 | 21031 ft | 363 kts | 0° |
| 2026-05-04 09:52 | 47.32998 | 11.23681 | 20623 ft | 361 kts | 0° |
| 2026-05-04 09:52 | 47.35181 | 11.23830 | 20198 ft | 359 kts | 0° |
| 2026-05-04 09:52 | 47.37353 | 11.23978 | 19780 ft | 358 kts | 0° |
| 2026-05-04 09:53 | 47.39498 | 11.24124 | 19397 ft | 356 kts | 0° |
| 2026-05-04 09:53 | 47.41645 | 11.24271 | 19002 ft | 354 kts | 1° |
| 2026-05-04 09:53 | 47.43773 | 11.24417 | 18609 ft | 352 kts | 1° |
| 2026-05-04 09:53 | 47.45904 | 11.24564 | 18201 ft | 351 kts | 1° |
| 2026-05-04 09:54 | 47.47982 | 11.24707 | 17834 ft | 349 kts | 1° |
| 2026-05-04 09:54 | 47.50106 | 11.24854 | 17461 ft | 348 kts | 1° |
| 2026-05-04 09:54 | 47.52158 | 11.25205 | 17146 ft | 346 kts | 8° |
| 2026-05-04 09:54 | 47.54214 | 11.25792 | 16817 ft | 345 kts | 10° |
| 2026-05-04 09:55 | 47.56214 | 11.26416 | 16473 ft | 344 kts | 11° |
| 2026-05-04 09:55 | 47.58234 | 11.27043 | 16126 ft | 342 kts | 11° |
| 2026-05-04 09:55 | 47.60259 | 11.27656 | 15803 ft | 341 kts | 10° |
| 2026-05-04 09:55 | 47.62264 | 11.28248 | 15450 ft | 341 kts | 10° |
| 2026-05-04 09:56 | 47.64315 | 11.28844 | 15067 ft | 341 kts | 10° |
| 2026-05-04 09:56 | 47.66324 | 11.29420 | 14723 ft | 340 kts | 10° |
| 2026-05-04 09:56 | 47.68349 | 11.29997 | 14365 ft | 339 kts | 10° |
| 2026-05-04 09:56 | 47.70325 | 11.30557 | 13998 ft | 338 kts | 10° |
| 2026-05-04 09:57 | 47.72329 | 11.31125 | 13630 ft | 336 kts | 10° |
| 2026-05-04 09:57 | 47.74354 | 11.31698 | 13289 ft | 334 kts | 10° |
| 2026-05-04 09:57 | 47.76324 | 11.32255 | 12961 ft | 332 kts | 10° |
| 2026-05-04 09:57 | 47.78283 | 11.32810 | 12639 ft | 330 kts | 10° |
| 2026-05-04 09:58 | 47.80230 | 11.33362 | 12288 ft | 328 kts | 11° |
| 2026-05-04 09:58 | 47.82171 | 11.33912 | 11948 ft | 326 kts | 11° |
| 2026-05-04 09:58 | 47.84095 | 11.34458 | 11605 ft | 324 kts | 11° |
| 2026-05-04 10:00 | 47.97167 | 11.38178 | 9564 ft | 297 kts | 12° |
| 2026-05-04 10:00 | 47.98916 | 11.38680 | 9251 ft | 295 kts | 12° |
| 2026-05-04 10:02 | 48.10778 | 11.42078 | 7216 ft | 276 kts | 12° |
| 2026-05-04 10:04 | 48.21998 | 11.45306 | 5292 ft | 260 kts | 12° |
| 2026-05-04 10:04 | 48.23507 | 11.45740 | 5267 ft | 247 kts | 12° |
| 2026-05-04 10:04 | 48.24946 | 11.46154 | 5246 ft | 235 kts | 12° |
| 2026-05-04 10:04 | 48.26332 | 11.46556 | 5221 ft | 223 kts | 12° |
| 2026-05-04 10:05 | 48.27625 | 11.46931 | 5192 ft | 212 kts | 12° |
| 2026-05-04 10:05 | 48.28891 | 11.47299 | 5168 ft | 208 kts | 12° |
| 2026-05-04 10:05 | 48.30114 | 11.47656 | 5132 ft | 201 kts | 13° |
| 2026-05-04 10:05 | 48.31228 | 11.48292 | 5006 ft | 193 kts | 40° |
| 2026-05-04 10:06 | 48.31911 | 11.49670 | 4866 ft | 187 kts | 69° |
| 2026-05-04 10:06 | 48.32215 | 11.51331 | 4613 ft | 189 kts | 79° |
| 2026-05-04 10:06 | 48.32396 | 11.53007 | 4328 ft | 189 kts | 81° |
| 2026-05-04 10:08 | 48.33136 | 11.62805 | 3087 ft | 160 kts | 83° |
| 2026-05-04 10:08 | 48.33242 | 11.64235 | 2883 ft | 153 kts | 83° |
| 2026-05-04 10:08 | 48.33344 | 11.65595 | 2710 ft | 144 kts | 83° |
| 2026-05-04 10:08 | 48.33443 | 11.66906 | 2538 ft | 142 kts | 83° |
| 2026-05-04 10:09 | 48.33542 | 11.68195 | 2384 ft | 141 kts | 83° |
| 2026-05-04 10:09 | 48.33635 | 11.69410 | 2227 ft | 132 kts | 83° |
| 2026-05-04 10:09 | 48.33722 | 11.70549 | 2078 ft | 127 kts | 83° |
| 2026-05-04 10:09 | 48.33807 | 11.71669 | 1945 ft | 127 kts | 83° |
| 2026-05-04 10:10 | 48.33892 | 11.72798 | 1824 ft | 127 kts | 83° |
| 2026-05-04 10:10 | 48.33971 | 11.73912 | 1681 ft | 127 kts | 83° |
| 2026-05-04 10:10 | 48.34058 | 11.75036 | 1544 ft | 126 kts | 83° |
| 2026-05-04 10:10 | 48.34147 | 11.76131 | 1485 ft | 114 kts | 83° |
| 2026-05-04 10:11 | 48.34211 | 11.76939 | 1481 ft | 70 kts | 84° |
| 2026-05-04 10:11 | 48.34255 | 11.77351 | 1477 ft | 31 kts | 69° |
| 2026-05-04 10:11 | 48.34327 | 11.77557 | 1474 ft | 19 kts | 55° |
| 2026-05-04 10:11 | 48.34378 | 11.77668 | 1474 ft | 12 kts | 60° |
| 2026-05-04 10:12 | 48.34417 | 11.77749 | 1476 ft | 11 kts | 45° |
| 2026-05-04 10:12 | 48.34468 | 11.77833 | 1475 ft | 14 kts | 49° |
| 2026-05-04 10:12 | 48.34518 | 11.77945 | 1474 ft | 16 kts | 54° |
| 2026-05-04 10:12 | 48.34585 | 11.78056 | 1472 ft | 16 kts | 19° |
| 2026-05-04 10:13 | 48.34685 | 11.78055 | 1471 ft | 16 kts | 358° |
| 2026-05-04 10:13 | 48.34784 | 11.78046 | 1471 ft | 17 kts | 354° |
| 2026-05-04 10:13 | 48.34870 | 11.78079 | 1470 ft | 15 kts | 64° |
| 2026-05-04 10:13 | 48.34890 | 11.78217 | 1471 ft | 16 kts | 68° |
| 2026-05-04 10:14 | 48.34971 | 11.78261 | 1472 ft | 14 kts | 355° |
| 2026-05-04 10:14 | 48.35063 | 11.78244 | 1472 ft | 16 kts | 354° |
| 2026-05-04 10:16 | 48.35135 | 11.78348 | 1477 ft | 0 kts | 83° |